createdAt,value
2023-04-10T00:02:02.927Z,7.81
2023-04-10T00:04:40.784Z,7.76
2023-04-10T00:07:07.933Z,7.71
2023-04-10T00:09:35.093Z,7.65
2023-04-10T00:12:11.449Z,7.59
2023-04-10T00:14:38.802Z,7.57
2023-04-10T00:17:07.495Z,7.54
2023-04-10T00:19:34.833Z,7.51
2023-04-10T00:22:08.613Z,7.48
2023-04-10T00:24:40.066Z,7.45
2023-04-10T00:27:07.661Z,7.43
2023-04-10T00:29:34.704Z,7.41
2023-04-10T00:32:02.417Z,7.42
2023-04-10T00:34:30.667Z,7.42
2023-04-10T00:37:01.334Z,7.40
2023-04-10T00:39:28.904Z,7.37
2023-04-10T00:41:59.902Z,7.34
2023-04-10T00:44:27.529Z,7.34
2023-04-10T00:46:54.677Z,7.29
2023-04-10T00:49:22.068Z,7.14
2023-04-10T00:51:49.292Z,6.94
2023-04-10T00:54:19.198Z,6.78
2023-04-10T00:56:47.282Z,6.68
2023-04-10T00:59:14.347Z,6.59
2023-04-10T01:01:41.583Z,6.53
2023-04-10T01:04:13.302Z,6.48
2023-04-10T01:07:13.652Z,6.42
2023-04-10T01:09:47.797Z,6.36
2023-04-10T01:12:30.168Z,6.32
2023-04-10T01:15:19.281Z,6.32
2023-04-10T01:17:56.455Z,6.32
2023-04-10T01:20:25.857Z,6.31
2023-04-10T01:23:05.672Z,6.27
2023-04-10T01:26:03.437Z,6.23
2023-04-10T01:28:41.087Z,6.17
2023-04-10T01:31:10.614Z,6.14
2023-04-10T01:33:43.184Z,6.20
2023-04-10T01:36:10.957Z,6.29
2023-04-10T01:38:40.789Z,6.39
2023-04-10T01:41:07.996Z,6.46
2023-04-10T01:43:36.386Z,6.52
2023-04-10T01:46:03.709Z,6.57
2023-04-10T01:48:31.049Z,6.60
2023-04-10T01:50:58.101Z,6.62
2023-04-10T01:53:25.870Z,6.55
2023-04-10T01:55:53.856Z,6.47
2023-04-10T01:58:21.833Z,6.40
2023-04-10T02:00:49.437Z,6.32
2023-04-10T02:03:17.599Z,6.22
2023-04-10T02:05:49.244Z,6.10
2023-04-10T02:08:19.292Z,5.99
2023-04-10T02:10:54.545Z,5.89
2023-04-10T09:57:20.308Z,15.10
2023-04-10T09:59:51.513Z,14.97
2023-04-10T10:02:19.908Z,14.82
2023-04-10T10:04:48.340Z,14.67
2023-04-10T10:07:22.568Z,14.65
2023-04-10T10:09:52.329Z,14.71
2023-04-10T10:12:27.492Z,14.74
2023-04-10T10:15:01.398Z,14.73
2023-04-10T10:17:32.338Z,14.76
2023-04-10T10:20:08.736Z,14.81
2023-04-10T10:22:38.918Z,14.89
2023-04-10T10:25:07.226Z,14.91
2023-04-10T10:27:38.433Z,14.86
2023-04-10T10:30:20.205Z,14.88
2023-04-10T10:32:54.363Z,14.93
2023-04-10T10:35:23.028Z,14.91
2023-04-10T10:37:52.721Z,14.95
2023-04-10T10:40:30.479Z,14.95
2023-04-10T10:43:27.536Z,14.89
2023-04-10T10:46:07.567Z,14.89
2023-04-10T10:48:35.399Z,14.89
2023-04-10T10:51:03.712Z,14.90
2023-04-10T10:53:36.219Z,14.91
2023-04-10T10:56:19.519Z,14.94
2023-04-10T10:59:03.850Z,14.90
2023-04-10T11:01:31.386Z,14.88
2023-04-10T11:04:00.397Z,14.96
2023-04-10T11:06:51.801Z,15.06
2023-04-10T11:09:51.339Z,15.08
2023-04-10T11:12:22.654Z,15.02
2023-04-10T11:15:03.527Z,14.94
2023-04-10T11:17:54.315Z,14.89
2023-04-10T11:20:27.519Z,14.92
2023-04-10T11:23:09.677Z,14.96
2023-04-10T11:25:50.739Z,15.05
2023-04-10T11:28:33.881Z,15.13
2023-04-10T11:31:22.282Z,15.18
2023-04-10T11:41:32.919Z,14.99
2023-04-10T11:44:01.364Z,15.06
2023-04-10T11:46:29.228Z,15.12
2023-04-10T11:48:58.650Z,15.12
2023-04-10T11:51:27.574Z,15.14
2023-04-10T11:54:16.713Z,15.15
2023-04-10T11:56:46.792Z,15.18
2023-04-10T11:59:16.246Z,15.17
2023-04-10T12:01:44.064Z,15.16
2023-04-10T12:04:16.615Z,15.18
2023-04-10T12:06:53.129Z,15.19
2023-04-10T12:09:21.420Z,15.18
2023-04-10T12:11:53.160Z,15.17
2023-04-10T12:14:24.542Z,15.09
2023-04-10T12:16:53.052Z,15.05
2023-04-10T12:19:23.943Z,15.03
2023-04-10T12:21:51.645Z,15.08
2023-04-10T12:24:44.572Z,15.07
2023-04-10T12:27:30.961Z,15.03
2023-04-10T12:29:58.607Z,14.97
2023-04-10T12:32:27.509Z,14.95
2023-04-10T12:35:03.697Z,14.94
2023-04-10T12:37:50.858Z,15.01
2023-04-10T12:40:18.788Z,15.09
2023-04-10T12:42:46.089Z,15.17
2023-04-10T12:45:14.870Z,15.18
2023-04-10T12:47:47.283Z,15.14
2023-04-10T12:50:19.209Z,15.14
2023-04-10T12:53:08.171Z,15.11
2023-04-10T12:55:35.535Z,15.10
2023-04-10T12:58:18.354Z,15.07
2023-04-10T13:00:45.910Z,15.04
2023-04-10T13:03:13.474Z,15.09
2023-04-10T13:05:43.001Z,15.16
2023-04-10T13:08:11.288Z,15.17
2023-04-10T13:10:38.429Z,15.17
2023-04-10T13:13:07.406Z,15.19
2023-04-10T13:15:34.933Z,15.11
2023-04-10T13:18:04.308Z,15.01
2023-04-10T13:20:37.229Z,14.97
2023-04-10T13:23:04.980Z,14.97
2023-04-10T13:25:33.872Z,15.00
2023-04-10T13:28:01.948Z,15.03
2023-04-10T13:30:29.749Z,15.03
2023-04-10T13:32:57.105Z,15.06
2023-04-10T13:35:24.379Z,15.05
2023-04-10T13:37:54.406Z,15.06
2023-04-10T13:40:27.885Z,15.05
2023-04-10T13:42:55.211Z,15.05
2023-04-10T13:45:22.552Z,15.04
2023-04-10T13:47:51.077Z,15.05
2023-04-10T13:50:18.305Z,15.06
2023-04-10T13:52:52.146Z,15.08
2023-04-10T13:55:20.887Z,15.11
2023-04-10T13:57:48.259Z,15.17
2023-04-10T14:00:16.487Z,15.21
2023-04-10T14:02:55.269Z,15.20
2023-04-10T14:05:22.994Z,15.14
2023-04-10T14:07:52.092Z,15.05
2023-04-10T14:10:21.112Z,14.95
2023-04-10T14:12:48.063Z,14.92
2023-04-10T14:15:15.781Z,14.90
2023-04-10T14:17:43.716Z,14.89
2023-04-10T14:20:14.346Z,14.88
2023-04-10T14:22:41.682Z,14.89
2023-04-10T14:25:13.698Z,14.88
2023-04-10T14:27:42.573Z,14.85
2023-04-10T14:30:10.769Z,14.82
2023-04-10T14:32:41.875Z,14.80
2023-04-10T14:35:10.800Z,14.81
2023-04-10T14:37:38.668Z,14.84
2023-04-10T14:40:07.203Z,14.86
2023-04-10T14:42:35.147Z,14.86
2023-04-10T14:45:02.517Z,14.87
2023-04-10T14:47:29.852Z,14.89
2023-04-10T14:49:57.173Z,14.89
2023-04-10T14:52:24.423Z,14.88
2023-04-10T14:54:51.379Z,14.84
2023-04-10T14:57:19.765Z,14.78
2023-04-10T14:59:48.398Z,14.77
2023-04-10T15:02:16.337Z,14.74
2023-04-10T15:04:47.862Z,14.72
2023-04-10T15:07:14.909Z,14.67
2023-04-10T15:09:43.356Z,14.63
2023-04-10T15:12:11.578Z,14.60
2023-04-10T15:14:40.350Z,14.59
2023-04-10T15:17:08.026Z,14.58
2023-04-10T15:19:42.048Z,14.56
2023-04-10T15:22:09.216Z,14.53
2023-04-10T15:24:46.937Z,14.49
2023-04-10T15:27:16.914Z,14.45
2023-04-10T15:29:44.068Z,14.40
2023-04-10T15:32:15.638Z,14.39
2023-04-10T15:34:45.188Z,14.36
2023-04-10T15:37:12.642Z,14.33
2023-04-10T15:39:44.815Z,14.28
2023-04-10T15:42:11.873Z,14.23
2023-04-10T15:44:39.032Z,14.19
2023-04-10T15:47:06.038Z,14.14
2023-04-10T15:49:42.833Z,14.10
2023-04-10T15:52:10.307Z,14.06
2023-04-10T15:54:38.967Z,14.03
2023-04-10T15:57:14.006Z,14.01
2023-04-10T15:59:42.424Z,13.97
2023-04-10T16:02:09.849Z,13.92
2023-04-10T16:04:47.967Z,13.86
2023-04-10T16:07:16.542Z,13.79
2023-04-10T16:09:44.031Z,13.73
2023-04-10T16:12:14.726Z,13.67
2023-04-10T16:14:43.308Z,13.60
2023-04-10T16:17:10.560Z,13.53
2023-04-10T16:19:39.067Z,13.46
2023-04-10T16:22:06.702Z,13.39
2023-04-10T16:24:34.009Z,13.31
2023-04-10T16:27:02.440Z,13.27
2023-04-10T16:29:30.155Z,13.20
2023-04-10T16:31:57.367Z,13.14
2023-04-10T16:34:24.622Z,13.05
2023-04-10T16:36:52.115Z,12.99
2023-04-10T16:39:19.981Z,12.93
2023-04-10T16:41:48.027Z,12.86
2023-04-10T16:44:16.272Z,12.81
2023-04-10T16:46:47.468Z,12.76
2023-04-10T16:49:15.557Z,12.70
2023-04-10T16:51:42.759Z,12.64
2023-04-10T16:54:10.698Z,12.58
2023-04-10T16:56:37.899Z,12.53
2023-04-10T16:59:05.361Z,12.47
2023-04-10T17:01:35.478Z,12.40
2023-04-10T17:04:02.951Z,12.35
2023-04-10T17:06:31.610Z,12.31
2023-04-10T17:09:00.449Z,12.26
2023-04-10T17:11:27.723Z,12.19
2023-04-10T17:13:54.801Z,12.14
2023-04-10T17:16:22.078Z,12.07
2023-04-10T17:18:49.267Z,11.99
2023-04-10T17:21:16.688Z,11.94
2023-04-10T17:23:49.816Z,11.89
2023-04-10T17:26:17.472Z,11.83
2023-04-10T17:28:46.590Z,11.78
2023-04-10T17:31:17.262Z,11.73
2023-04-10T17:33:44.467Z,11.68
2023-04-10T17:36:12.631Z,11.64
2023-04-10T17:38:42.178Z,11.60
2023-04-10T17:41:09.815Z,11.57
2023-04-10T17:43:38.801Z,11.53
2023-04-10T17:46:06.837Z,11.49
2023-04-10T17:48:35.309Z,11.46
2023-04-10T17:51:07.489Z,11.42
2023-04-10T17:53:34.760Z,11.36
2023-04-10T17:56:02.955Z,11.30
2023-04-10T17:58:31.130Z,11.24
2023-04-10T18:00:59.239Z,11.22
2023-04-10T18:03:27.926Z,11.18
2023-04-10T18:05:55.754Z,11.14
2023-04-10T18:08:24.362Z,11.09
2023-04-10T18:10:51.559Z,11.05
2023-04-10T18:13:19.144Z,11.02
2023-04-10T18:15:49.050Z,10.99
2023-04-10T18:18:16.799Z,10.97
2023-04-10T18:20:45.312Z,10.93
2023-04-10T18:23:12.759Z,10.91
2023-04-10T18:25:40.038Z,10.89
2023-04-10T18:28:15.016Z,10.87
2023-04-10T18:30:43.962Z,10.84
2023-04-10T18:33:11.913Z,10.80
2023-04-10T18:35:40.644Z,10.78
2023-04-10T18:38:08.436Z,10.72
2023-04-10T18:40:38.365Z,10.68
2023-04-10T18:43:05.942Z,10.66
2023-04-10T18:45:35.315Z,10.63
2023-04-10T18:48:03.285Z,10.62
2023-04-10T18:50:31.462Z,10.60
2023-04-10T18:53:01.987Z,10.57
2023-04-10T18:55:30.484Z,10.55
2023-04-10T18:57:57.546Z,10.51
2023-04-10T19:00:24.818Z,10.49
2023-04-10T19:02:54.178Z,10.46
2023-04-10T19:05:21.311Z,10.44
2023-04-10T19:08:00.752Z,10.41
2023-04-10T19:10:32.221Z,10.38
2023-04-10T19:13:05.597Z,10.34
2023-04-10T19:15:41.935Z,10.32
2023-04-10T19:18:09.322Z,10.30
2023-04-10T19:20:50.413Z,10.27
2023-04-10T19:23:22.731Z,10.23
2023-04-10T19:25:54.995Z,10.19
2023-04-10T19:28:23.241Z,10.17
2023-04-10T19:31:10.661Z,10.14
2023-04-10T19:33:39.376Z,10.11
2023-04-10T19:36:08.443Z,10.12
2023-04-10T19:38:36.124Z,10.10
2023-04-10T19:41:12.647Z,10.08
2023-04-10T19:43:40.832Z,10.05
2023-04-10T19:46:21.908Z,10.02
2023-04-10T19:48:49.709Z,10.00
2023-04-10T19:51:16.851Z,9.96
2023-04-10T20:01:06.530Z,9.87
2023-04-10T20:03:35.904Z,9.83
2023-04-10T20:06:03.708Z,9.79
2023-04-10T20:08:35.868Z,9.75
2023-04-10T20:11:06.816Z,9.70
2023-04-10T20:13:35.034Z,9.67
2023-04-10T20:16:07.834Z,9.61
2023-04-10T20:18:36.346Z,9.57
2023-04-10T20:21:04.941Z,9.52
2023-04-10T20:23:34.154Z,9.49
2023-04-10T20:26:01.425Z,9.46
2023-04-10T20:28:28.731Z,9.43
2023-04-10T20:30:55.908Z,9.40
2023-04-10T20:33:24.596Z,9.38
2023-04-10T20:35:52.901Z,9.35
2023-04-10T20:38:21.361Z,9.32
2023-04-10T20:40:48.776Z,9.29
2023-04-10T20:43:16.242Z,9.25
2023-04-10T20:45:44.167Z,9.22
2023-04-10T20:48:11.503Z,9.18
2023-04-10T20:50:46.114Z,9.14
2023-04-10T20:53:13.749Z,9.11
2023-04-10T20:55:41.325Z,9.06
2023-04-10T20:58:08.588Z,9.02
2023-04-10T21:00:36.065Z,8.99
2023-04-10T21:03:04.122Z,8.95
2023-04-10T21:05:31.721Z,8.93
2023-04-10T21:07:59.618Z,8.93
2023-04-10T21:10:26.925Z,8.93
2023-04-10T21:12:54.019Z,8.91
2023-04-10T21:15:22.710Z,8.90
2023-04-10T21:17:49.743Z,8.90
2023-04-10T21:20:17.321Z,8.89
2023-04-10T21:22:44.493Z,8.88
2023-04-10T21:25:11.812Z,8.88
2023-04-10T21:27:39.207Z,8.88
2023-04-10T21:30:08.020Z,8.88
2023-04-10T21:32:35.733Z,8.87
2023-04-10T21:35:03.597Z,8.86
2023-04-10T21:37:31.268Z,8.85
2023-04-10T21:39:58.543Z,8.84
2023-04-10T21:42:26.632Z,8.82
2023-04-10T21:44:54.721Z,8.82
2023-04-10T21:47:21.999Z,8.83
2023-04-10T21:49:49.830Z,8.85
2023-04-10T21:52:19.832Z,8.87
2023-04-10T21:54:47.100Z,8.87
2023-04-10T21:57:14.236Z,8.85
2023-04-10T21:59:41.432Z,8.82
2023-04-10T22:02:08.532Z,8.80
2023-04-10T22:04:41.480Z,8.79
2023-04-10T22:07:15.073Z,8.76
2023-04-10T22:09:42.113Z,8.73
2023-04-10T22:14:21.485Z,8.67
2023-04-10T22:16:49.164Z,8.62
2023-04-10T22:19:16.370Z,8.60
2023-04-10T22:21:43.426Z,8.57
2023-04-10T22:24:11.124Z,8.54
2023-04-10T22:26:38.334Z,8.51
2023-04-10T22:29:07.861Z,8.49
2023-04-10T22:31:35.123Z,8.45
2023-04-10T22:34:02.245Z,8.40
2023-04-10T22:36:36.000Z,8.35
2023-04-10T22:39:03.476Z,8.28
2023-04-10T22:41:31.984Z,8.22
2023-04-10T22:43:59.355Z,8.14
2023-04-10T22:46:32.008Z,8.09
2023-04-10T22:48:59.169Z,8.03
2023-04-10T22:51:26.877Z,7.98
2023-04-10T22:53:54.526Z,7.95
2023-04-10T22:56:26.345Z,7.92
2023-04-10T22:58:55.474Z,7.90
2023-04-10T23:01:22.797Z,7.87
2023-04-10T23:03:53.906Z,7.83
2023-04-10T23:06:22.030Z,7.80
2023-04-10T23:08:51.338Z,7.78
2023-04-10T23:11:18.455Z,7.78
2023-04-10T23:13:47.196Z,7.78
2023-04-10T23:16:15.241Z,7.79
2023-04-10T23:18:42.139Z,7.80
2023-04-10T23:21:10.743Z,7.81
2023-04-10T23:23:38.265Z,7.83
2023-04-10T23:26:05.424Z,7.86
2023-04-10T23:28:33.344Z,7.88
2023-04-10T23:31:00.427Z,7.88
2023-04-10T23:33:27.353Z,7.89
2023-04-10T23:35:57.663Z,7.89
2023-04-10T23:38:24.961Z,7.90
2023-04-10T23:40:52.357Z,7.89
2023-04-10T23:43:19.157Z,7.89
2023-04-10T23:45:46.093Z,7.88
2023-04-10T23:48:15.112Z,7.89
2023-04-10T23:50:42.030Z,7.88
2023-04-10T23:53:09.097Z,7.87
2023-04-10T23:55:36.288Z,7.85
2023-04-10T23:58:03.565Z,7.83
